Time;durP1;ratioP1;P1;durP2;ratioP2;P2;SDS_P1;SDS_P2;PMS_P1;PMS_P2;Temp;Humidity;BMP_temperature;BMP_pressure;BME280_temperature;BME280_humidity;BME280_pressure;Samples;Min_cycle;Max_cycle;Signal;HPM_P1;HPM_P2
2021/03/01 00:00:20;;;;;;;20.30;11.13;;;;;;;-1.73;100.00;97315.34;1023599;28;20535;-49
2021/03/01 00:00:51;;;;;;;16.60;11.38;;;;;;;-1.74;100.00;97316.22;1023726;29;20556;-48
2021/03/01 00:01:21;;;;;;;19.77;11.85;;;;;;;-1.74;100.00;97316.22;1023540;29;20290;-51
2021/03/01 00:01:52;;;;;;;19.55;12.18;;;;;;;-1.78;100.00;97310.22;1015724;29;20024;-49
2021/03/01 00:02:22;;;;;;;22.50;12.10;;;;;;;-1.70;100.00;97319.66;1023779;28;20019;-49
2021/03/01 00:02:53;;;;;;;17.25;12.35;;;;;;;-1.69;100.00;97324.78;1023468;29;20035;-47
2021/03/01 00:03:24;;;;;;;20.10;12.10;;;;;;;-1.71;100.00;97325.63;1015618;29;20482;-50
2021/03/01 00:03:55;;;;;;;16.08;11.27;;;;;;;-1.76;100.00;97317.94;1023290;29;20453;-50
2021/03/01 00:04:26;;;;;;;16.85;10.77;;;;;;;-1.71;100.00;97317.91;1019803;29;20497;-50
2021/03/01 00:04:56;;;;;;;18.55;11.00;;;;;;;-1.70;100.00;97323.06;1019666;29;20114;-51
2021/03/01 00:05:27;;;;;;;16.25;11.52;;;;;;;-1.67;100.00;97324.78;1019682;29;20255;-48
2021/03/01 00:05:58;;;;;;;20.15;11.40;;;;;;;-1.68;100.00;97320.50;1023637;29;20023;-48
2021/03/01 00:06:29;;;;;;;16.80;11.05;;;;;;;-1.71;100.00;97315.34;1015837;29;20068;-49
2021/03/01 00:07:00;;;;;;;17.45;11.32;;;;;;;-1.72;100.00;97318.78;1019672;29;20322;-50
2021/03/01 00:07:30;;;;;;;17.25;12.00;;;;;;;-1.72;100.00;97318.78;1016343;29;20450;-50
2021/03/01 00:08:01;;;;;;;17.45;11.23;;;;;;;-1.74;100.00;97318.78;1020586;29;20020;-50
2021/03/01 00:08:32;;;;;;;16.67;10.60;;;;;;;-1.76;100.00;97323.06;1020498;29;20454;-50
2021/03/01 00:09:03;;;;;;;15.27;10.68;;;;;;;-1.73;100.00;97319.63;1020468;29;20055;-50
2021/03/01 00:09:34;;;;;;;16.15;11.90;;;;;;;-1.73;100.00;97324.78;1024302;29;20081;-49
2021/03/01 00:10:05;;;;;;;17.33;10.98;;;;;;;-1.74;100.00;97318.78;1016431;29;20390;-50
2021/03/01 00:10:36;;;;;;;15.30;11.15;;;;;;;-1.73;100.00;97317.91;1020429;29;20027;-49
2021/03/01 00:11:07;;;;;;;16.60;10.70;;;;;;;-1.71;100.00;97317.91;1020474;29;20295;-50
2021/03/01 00:11:38;;;;;;;16.10;10.95;;;;;;;-1.73;100.00;97320.47;1016412;29;20623;-52
2021/03/01 00:12:09;;;;;;;17.60;10.77;;;;;;;-1.74;100.00;97312.81;1024241;29;20031;-50
2021/03/01 00:12:40;;;;;;;21.58;11.96;;;;;;;-1.72;100.00;97321.38;1024272;29;20039;-49
2021/03/01 00:13:11;;;;;;;18.04;11.04;;;;;;;-1.77;100.00;97314.47;1024302;28;20105;-50
2021/03/01 00:13:42;;;;;;;21.05;11.32;;;;;;;-1.76;100.00;97315.38;1008408;29;20017;-51
2021/03/01 00:14:12;;;;;;;16.05;11.00;;;;;;;-1.79;100.00;97313.63;1028229;28;20037;-50
2021/03/01 00:14:43;;;;;;;19.35;11.60;;;;;;;-1.78;100.00;97317.09;1024364;29;20031;-49
2021/03/01 00:15:15;;;;;;;18.85;11.32;;;;;;;-1.76;100.00;97318.78;1016630;29;20108;-49
2021/03/01 00:15:47;;;;;;;15.95;11.00;;;;;;;-1.75;100.00;97317.06;1024428;28;20030;-48
2021/03/01 00:16:17;;;;;;;19.13;11.95;;;;;;;-1.78;100.00;97314.50;1024220;28;20262;-49
2021/03/01 00:16:48;;;;;;;17.98;10.95;;;;;;;-1.76;100.00;97318.78;1020409;29;20714;-50
2021/03/01 00:17:19;;;;;;;15.77;10.65;;;;;;;-1.75;100.00;97309.34;1020379;29;20027;-50
2021/03/01 00:17:49;;;;;;;19.15;11.63;;;;;;;-1.78;100.00;97312.78;1020367;29;20316;-47
2021/03/01 00:18:20;;;;;;;15.30;10.77;;;;;;;-1.74;100.00;97318.78;1036311;28;20029;-51
2021/03/01 00:18:51;;;;;;;21.74;10.74;;;;;;;-1.74;100.00;97313.66;1016416;29;20486;-46
2021/03/01 00:19:22;;;;;;;15.18;10.82;;;;;;;-1.77;100.00;97314.47;1020539;29;20023;-49
2021/03/01 00:19:53;;;;;;;15.65;11.25;;;;;;;-1.80;100.00;97314.50;1032474;28;20022;-49
2021/03/01 00:20:23;;;;;;;17.05;10.93;;;;;;;-1.80;100.00;97311.94;1020274;29;20035;-47
2021/03/01 00:20:54;;;;;;;18.23;11.07;;;;;;;-1.82;100.00;97313.66;1016591;29;20505;-49
2021/03/01 00:21:24;;;;;;;18.15;11.88;;;;;;;-1.85;100.00;97315.34;1020521;29;20027;-50
2021/03/01 00:21:55;;;;;;;18.27;11.25;;;;;;;-2.00;100.00;97293.94;1012625;29;20021;-50
2021/03/01 00:22:26;;;;;;;17.33;11.80;;;;;;;-1.86;100.00;97319.66;1024198;29;20767;-49
2021/03/01 00:22:56;;;;;;;15.65;11.02;;;;;;;-1.85;100.00;97311.06;1028324;28;20118;-50
2021/03/01 00:23:27;;;;;;;18.42;11.50;;;;;;;-1.84;100.00;97315.38;1020434;29;20027;-49
2021/03/01 00:23:58;;;;;;;17.60;11.68;;;;;;;-1.85;100.00;97313.63;1028182;28;20058;-49
2021/03/01 00:24:28;;;;;;;17.08;11.38;;;;;;;-1.85;100.00;97310.22;1024159;29;20145;-51
2021/03/01 00:24:59;;;;;;;18.40;11.68;;;;;;;-1.86;100.00;97308.50;1016500;29;20123;-49
2021/03/01 00:25:30;;;;;;;18.27;10.27;;;;;;;-1.89;100.00;97309.34;1012630;29;20093;-50
2021/03/01 00:26:01;;;;;;;15.98;10.65;;;;;;;-1.90;100.00;97307.63;1024397;29;20027;-50
2021/03/01 00:26:31;;;;;;;19.67;11.20;;;;;;;-1.88;100.00;97307.63;1016331;29;20504;-50
2021/03/01 00:27:02;;;;;;;17.10;11.23;;;;;;;-1.88;100.00;97305.06;1020372;29;20046;-51
2021/03/01 00:27:33;;;;;;;19.73;11.50;;;;;;;-1.88;100.00;97315.34;1016418;29;20114;-50
2021/03/01 00:28:04;;;;;;;17.00;11.18;;;;;;;-1.89;100.00;97311.94;1008681;29;20032;-49
2021/03/01 00:28:35;;;;;;;18.20;11.46;;;;;;;-1.91;100.00;97313.63;1016328;29;20103;-50
2021/03/01 00:29:05;;;;;;;17.05;11.23;;;;;;;-1.91;100.00;97307.66;1020402;29;20558;-49
2021/03/01 00:29:36;;;;;;;17.63;10.85;;;;;;;-1.90;100.00;97311.91;1020273;28;20123;-50
2021/03/01 00:30:08;;;;;;;15.52;10.75;;;;;;;-1.90;100.00;97312.78;1020351;29;20063;-51
2021/03/01 00:30:39;;;;;;;14.54;10.68;;;;;;;-1.90;100.00;97311.91;1024124;29;20051;-50
2021/03/01 00:31:10;;;;;;;19.52;10.80;;;;;;;-1.95;100.00;97304.22;1020384;29;20539;-49
2021/03/01 00:31:40;;;;;;;19.20;12.27;;;;;;;-1.92;100.00;97311.91;1020351;29;20027;-52
2021/03/01 00:32:11;;;;;;;23.85;12.60;;;;;;;-1.91;100.00;97313.63;1016442;29;20028;-51
2021/03/01 00:32:42;;;;;;;19.00;11.35;;;;;;;-1.91;100.00;97320.50;1012416;29;20450;-49
2021/03/01 00:33:12;;;;;;;18.08;11.18;;;;;;;-1.91;100.00;97313.63;1016247;29;20647;-49
2021/03/01 00:33:43;;;;;;;15.70;10.45;;;;;;;-1.91;100.00;97316.22;1020137;28;20031;-50
2021/03/01 00:34:14;;;;;;;18.55;12.32;;;;;;;-1.90;100.00;97312.78;1016377;29;20135;-50
2021/03/01 00:34:45;;;;;;;17.25;11.50;;;;;;;-1.91;100.00;97308.50;1024146;29;20051;-48
2021/03/01 00:35:15;;;;;;;20.92;12.02;;;;;;;-1.88;100.00;97315.34;1020519;29;20019;-49
2021/03/01 00:35:46;;;;;;;19.58;12.55;;;;;;;-1.92;100.00;97309.34;1020372;29;20028;-48
2021/03/01 00:36:17;;;;;;;17.10;11.25;;;;;;;-1.93;100.00;97319.63;1028253;28;20143;-52
2021/03/01 00:36:47;;;;;;;15.68;11.13;;;;;;;-1.92;100.00;97313.63;1024068;29;20504;-48
2021/03/01 00:37:18;;;;;;;19.48;11.32;;;;;;;-1.92;100.00;97314.47;1020441;29;20477;-49
2021/03/01 00:37:49;;;;;;;16.73;10.75;;;;;;;-1.89;100.00;97317.06;1020370;29;20457;-52
2021/03/01 00:38:20;;;;;;;15.80;10.98;;;;;;;-1.89;100.00;97313.66;1020340;29;20024;-50
2021/03/01 00:38:50;;;;;;;19.15;10.82;;;;;;;-1.90;100.00;97312.78;1028132;28;20120;-49
2021/03/01 00:39:21;;;;;;;17.65;10.88;;;;;;;-1.91;100.00;97313.63;1024306;29;20027;-49
2021/03/01 00:39:52;;;;;;;19.00;10.25;;;;;;;-1.91;100.00;97310.22;1024220;28;20182;-49
2021/03/01 00:40:23;;;;;;;16.35;10.70;;;;;;;-1.89;100.00;97309.34;1028300;28;20539;-52
2021/03/01 00:40:54;;;;;;;16.95;10.93;;;;;;;-1.89;100.00;97308.50;1020220;29;20023;-50
2021/03/01 00:41:25;;;;;;;16.84;10.86;;;;;;;-1.88;100.00;97308.47;1024218;29;20139;-50
2021/03/01 00:41:55;;;;;;;15.38;10.07;;;;;;;-1.85;100.00;97310.22;1020456;29;20508;-51
2021/03/01 00:42:26;;;;;;;16.60;11.23;;;;;;;-1.85;100.00;97308.50;1016308;29;20510;-49
2021/03/01 00:42:57;;;;;;;19.10;11.60;;;;;;;-1.85;100.00;97305.94;1024123;28;20019;-50
2021/03/01 00:43:30;;;;;;;16.52;11.18;;;;;;;-1.83;100.00;97301.66;1008509;29;20395;-50
2021/03/01 00:44:01;;;;;;;16.50;11.22;;;;;;;-1.82;100.00;97307.63;1012487;29;20028;-52
2021/03/01 00:44:32;;;;;;;15.82;11.00;;;;;;;-1.81;100.00;97299.09;1028210;28;20124;-49
2021/03/01 00:45:05;;;;;;;16.84;11.36;;;;;;;-1.77;100.00;97303.38;1020303;29;20026;-49
2021/03/01 00:45:35;;;;;;;16.12;11.32;;;;;;;-1.78;100.00;97301.66;1012443;29;20088;-50
2021/03/01 00:46:06;;;;;;;18.17;11.32;;;;;;;-1.74;100.00;97302.53;1016322;29;20092;-50
2021/03/01 00:46:37;;;;;;;15.35;10.30;;;;;;;-1.85;100.00;97281.97;1020473;29;20074;-48
2021/03/01 00:47:08;;;;;;;17.08;10.75;;;;;;;-1.70;100.00;97296.53;1020279;29;20019;-51
2021/03/01 00:47:39;;;;;;;17.67;11.35;;;;;;;-1.69;100.00;97300.78;1016265;29;20024;-50
2021/03/01 00:48:10;;;;;;;14.92;10.24;;;;;;;-1.69;100.00;97301.66;1016377;29;20033;-50
2021/03/01 00:48:41;;;;;;;16.06;10.62;;;;;;;-1.71;100.00;97298.22;1008605;29;20021;-48
2021/03/01 00:49:11;;;;;;;16.73;11.20;;;;;;;-1.69;100.00;97300.78;1020210;29;20027;-52
2021/03/01 00:49:42;;;;;;;16.80;11.13;;;;;;;-1.69;100.00;97303.34;1012419;29;20386;-50
2021/03/01 00:50:14;;;;;;;14.75;11.05;;;;;;;-1.71;100.00;97302.50;1024262;29;20074;-50
2021/03/01 00:50:44;;;;;;;15.48;11.50;;;;;;;-1.71;100.00;97302.50;1012299;29;20024;-50
2021/03/01 00:51:15;;;;;;;15.95;10.93;;;;;;;-1.73;100.00;97293.94;1020170;29;20213;-49
2021/03/01 00:51:46;;;;;;;18.42;10.95;;;;;;;-1.72;100.00;97299.09;1020186;29;20047;-51
2021/03/01 00:52:17;;;;;;;16.20;11.00;;;;;;;-1.69;100.00;97298.22;1012432;29;20043;-49
2021/03/01 00:52:48;;;;;;;17.98;12.32;;;;;;;-1.67;100.00;97304.22;1012402;29;20063;-52
2021/03/01 00:53:22;;;;;;;14.88;10.66;;;;;;;-1.69;100.00;97296.53;1012192;29;20150;-50
2021/03/01 00:53:52;;;;;;;17.38;11.98;;;;;;;-1.68;100.00;97298.22;1015951;29;20026;-50
2021/03/01 00:54:23;;;;;;;16.00;11.25;;;;;;;-1.65;100.00;97299.94;1020211;29;20030;-50
2021/03/01 00:54:54;;;;;;;19.95;12.10;;;;;;;-1.64;100.00;97301.66;1020236;29;20034;-50
2021/03/01 00:55:25;;;;;;;16.38;11.05;;;;;;;-1.63;100.00;97298.25;1024067;29;20019;-51
2021/03/01 00:55:56;;;;;;;16.42;11.18;;;;;;;-1.64;100.00;97305.06;1024133;29;20495;-50
2021/03/01 00:56:27;;;;;;;18.13;11.30;;;;;;;-1.63;100.00;97304.22;1020186;29;20016;-50
2021/03/01 00:56:58;;;;;;;17.48;12.63;;;;;;;-1.60;100.00;97305.94;1016439;29;20308;-50
2021/03/01 00:57:29;;;;;;;18.00;11.88;;;;;;;-1.61;100.00;97301.66;1024073;29;20389;-49
2021/03/01 00:58:00;;;;;;;15.35;10.73;;;;;;;-1.60;100.00;97306.78;1024251;29;20098;-52
2021/03/01 00:58:30;;;;;;;18.30;12.35;;;;;;;-1.60;100.00;97300.78;1020221;29;20056;-50
2021/03/01 00:59:01;;;;;;;17.42;12.07;;;;;;;-1.62;100.00;97302.50;1016291;29;20024;-50
2021/03/01 00:59:33;;;;;;;16.22;11.86;;;;;;;-1.63;100.00;97304.22;1024141;29;20023;-50
2021/03/01 01:00:08;;;;;;;15.68;10.90;;;;;;;-1.65;100.00;97294.78;1020299;29;20016;-52
2021/03/01 01:00:38;;;;;;;17.40;11.58;;;;;;;-1.61;100.00;97306.81;1024194;29;20019;-51
2021/03/01 01:01:09;;;;;;;17.80;10.98;;;;;;;-1.66;100.00;97298.22;1016314;29;20027;-49
2021/03/01 01:01:40;;;;;;;15.95;11.10;;;;;;;-1.63;100.00;97305.94;1008516;29;20061;-49
2021/03/01 01:02:10;;;;;;;15.93;10.82;;;;;;;-1.59;100.00;97303.38;1016240;29;20051;-48
2021/03/01 01:02:41;;;;;;;15.95;11.65;;;;;;;-1.52;100.00;97308.50;1016332;29;20019;-48
2021/03/01 01:03:13;;;;;;;15.77;10.57;;;;;;;-1.52;100.00;97308.50;1020160;29;20030;-51
2021/03/01 01:03:44;;;;;;;16.24;10.90;;;;;;;-1.51;100.00;97307.66;1016173;29;20051;-47
2021/03/01 01:04:14;;;;;;;16.63;10.75;;;;;;;-1.51;100.00;97310.22;1009621;29;20100;-50
2021/03/01 01:04:45;;;;;;;18.85;11.68;;;;;;;-1.51;100.00;97308.50;1020198;29;20043;-49
2021/03/01 01:05:16;;;;;;;14.55;10.80;;;;;;;-1.51;100.00;97310.22;1012529;29;20407;-50
2021/03/01 01:05:47;;;;;;;15.32;10.40;;;;;;;-1.50;100.00;97309.34;1016262;29;20015;-49
2021/03/01 01:06:17;;;;;;;16.15;11.68;;;;;;;-1.54;100.00;97300.78;1020193;29;20015;-48
2021/03/01 01:06:48;;;;;;;18.33;11.98;;;;;;;-1.57;100.00;97311.94;1024042;29;20015;-50
2021/03/01 01:07:19;;;;;;;16.00;11.38;;;;;;;-1.56;100.00;97307.63;1020314;29;20012;-50
2021/03/01 01:07:49;;;;;;;17.23;11.60;;;;;;;-1.57;100.00;97308.50;1012402;29;20020;-49
2021/03/01 01:08:20;;;;;;;15.02;10.82;;;;;;;-1.57;100.00;97311.06;1020054;29;20465;-52
2021/03/01 01:08:51;;;;;;;17.48;11.15;;;;;;;-1.60;100.00;97306.78;1020171;29;20011;-49
2021/03/01 01:09:21;;;;;;;15.52;11.15;;;;;;;-1.63;100.00;97306.78;1020245;29;20024;-50
2021/03/01 01:09:52;;;;;;;16.20;11.90;;;;;;;-1.60;100.00;97313.63;1024666;29;20023;-52
2021/03/01 01:10:23;;;;;;;16.80;12.27;;;;;;;-1.62;100.00;97307.66;1009694;29;20427;-50
2021/03/01 01:10:54;;;;;;;15.82;11.50;;;;;;;-1.64;100.00;97304.22;1025504;29;20012;-50
2021/03/01 01:11:25;;;;;;;16.48;11.30;;;;;;;-1.62;100.00;97302.50;1017362;29;20299;-51
2021/03/01 01:11:55;;;;;;;19.60;11.52;;;;;;;-1.62;100.00;97307.66;1021140;29;20016;-51
2021/03/01 01:12:26;;;;;;;16.85;11.75;;;;;;;-1.61;100.00;97306.81;1017427;29;20024;-49
2021/03/01 01:12:57;;;;;;;17.38;11.23;;;;;;;-1.62;100.00;97310.22;1012652;29;20020;-51
2021/03/01 01:13:28;;;;;;;18.80;12.90;;;;;;;-1.63;100.00;97317.06;1024231;29;20024;-49
2021/03/01 01:13:59;;;;;;;17.15;11.40;;;;;;;-1.63;100.00;97304.22;1020367;29;20026;-51
2021/03/01 01:14:29;;;;;;;16.30;11.50;;;;;;;-1.62;100.00;97311.06;1028445;28;20037;-51
2021/03/01 01:15:00;;;;;;;17.35;11.05;;;;;;;-1.61;100.00;97306.81;1020337;29;20111;-50
2021/03/01 01:15:31;;;;;;;17.58;12.65;;;;;;;-1.63;100.00;97311.94;1005013;29;20112;-51
2021/03/01 01:16:02;;;;;;;17.80;11.70;;;;;;;-1.63;100.00;97317.06;1008479;29;20021;-50
2021/03/01 01:16:33;;;;;;;18.58;12.95;;;;;;;-1.63;100.00;97316.22;1016160;29;20269;-49
2021/03/01 01:17:05;;;;;;;17.40;11.77;;;;;;;-1.63;100.00;97311.94;1020231;29;20091;-51
2021/03/01 01:17:36;;;;;;;17.08;11.94;;;;;;;-1.65;100.00;97313.66;1020351;29;20115;-50
2021/03/01 01:18:07;;;;;;;18.92;12.48;;;;;;;-1.65;100.00;97315.34;1024125;29;20472;-50
2021/03/01 01:18:38;;;;;;;19.27;12.50;;;;;;;-1.67;100.00;97309.34;1019738;29;20303;-50
2021/03/01 01:19:09;;;;;;;17.27;12.38;;;;;;;-1.64;100.00;97311.94;1015910;29;20028;-50
2021/03/01 01:19:39;;;;;;;17.98;11.88;;;;;;;-1.63;100.00;97303.38;1016216;29;20524;-50
2021/03/01 01:20:11;;;;;;;15.68;11.23;;;;;;;-1.60;100.00;97311.91;1024146;29;20437;-50
2021/03/01 01:20:42;;;;;;;19.56;11.94;;;;;;;-1.57;100.00;97314.50;1016116;29;20080;-49
2021/03/01 01:21:13;;;;;;;15.25;11.07;;;;;;;-1.56;100.00;97312.78;1020125;29;20020;-50
2021/03/01 01:21:44;;;;;;;17.90;11.55;;;;;;;-1.55;100.00;97311.94;1008438;29;20289;-49
2021/03/01 01:22:15;;;;;;;16.23;11.23;;;;;;;-1.57;100.00;97314.50;1012421;29;20479;-50
2021/03/01 01:22:45;;;;;;;17.80;11.93;;;;;;;-1.55;100.00;97311.09;1020027;29;20104;-50
2021/03/01 01:23:16;;;;;;;18.88;11.65;;;;;;;-1.62;100.00;97310.22;1023947;29;20412;-49
2021/03/01 01:23:47;;;;;;;17.05;11.45;;;;;;;-1.64;100.00;97312.78;1015983;29;20028;-52
2021/03/01 01:24:17;;;;;;;16.42;12.45;;;;;;;-1.68;100.00;97308.50;1016356;29;20027;-50
2021/03/01 01:24:48;;;;;;;17.05;11.98;;;;;;;-1.68;100.00;97312.78;1016211;29;20012;-49
2021/03/01 01:25:19;;;;;;;16.88;11.50;;;;;;;-1.69;100.00;97313.63;1020120;29;20138;-50
2021/03/01 01:25:50;;;;;;;18.10;11.82;;;;;;;-1.71;100.00;97313.63;1020204;29;20066;-48
2021/03/01 01:26:21;;;;;;;20.48;12.48;;;;;;;-1.70;100.00;97314.50;1016255;29;20107;-48
2021/03/01 01:26:51;;;;;;;21.40;12.23;;;;;;;-1.68;100.00;97302.53;1023932;29;20441;-48
2021/03/01 01:27:22;;;;;;;18.45;11.57;;;;;;;-1.66;100.00;97308.50;1012318;29;20109;-50
2021/03/01 01:27:53;;;;;;;20.67;11.50;;;;;;;-1.68;100.00;97312.78;1012384;29;20020;-48
2021/03/01 01:28:24;;;;;;;20.73;12.30;;;;;;;-1.68;100.00;97305.09;1020088;29;20020;-51
2021/03/01 01:28:55;;;;;;;18.17;12.27;;;;;;;-1.68;100.00;97307.66;1012206;29;20013;-49
2021/03/01 01:29:26;;;;;;;16.46;12.02;;;;;;;-1.70;100.00;97314.50;1016199;29;20482;-50
2021/03/01 01:29:56;;;;;;;18.95;12.55;;;;;;;-1.71;100.00;97315.34;1020077;29;20027;-49
2021/03/01 01:30:27;;;;;;;19.17;12.73;;;;;;;-1.73;100.00;97314.50;1020165;29;20020;-51
2021/03/01 01:30:58;;;;;;;17.02;12.10;;;;;;;-1.76;100.00;97311.06;1016071;29;20390;-48
2021/03/01 01:31:29;;;;;;;19.98;12.55;;;;;;;-1.75;100.00;97309.34;1008544;29;20063;-49
2021/03/01 01:32:00;;;;;;;17.30;12.02;;;;;;;-1.77;100.00;97311.91;1016151;29;20119;-50
2021/03/01 01:32:31;;;;;;;18.40;12.52;;;;;;;-1.79;100.00;97308.50;1016340;29;20020;-48
2021/03/01 01:33:01;;;;;;;17.10;11.90;;;;;;;-1.80;100.00;97309.38;1012094;29;20109;-53
2021/03/01 01:33:32;;;;;;;18.35;12.38;;;;;;;-1.92;100.00;97291.38;1012038;29;20018;-49
2021/03/01 01:34:03;;;;;;;19.73;11.82;;;;;;;-1.83;100.00;97311.94;1020037;29;20028;-50
2021/03/01 01:34:33;;;;;;;18.65;11.75;;;;;;;-1.85;100.00;97311.06;1016189;29;20023;-52
2021/03/01 01:35:06;;;;;;;19.10;12.70;;;;;;;-1.87;100.00;97310.22;1012197;29;20489;-49
2021/03/01 01:35:37;;;;;;;17.46;11.88;;;;;;;-1.92;100.00;97300.78;1016144;29;20032;-49
2021/03/01 01:36:08;;;;;;;17.63;11.60;;;;;;;-1.90;100.00;97312.78;1012229;29;20470;-52
2021/03/01 01:36:39;;;;;;;17.38;12.36;;;;;;;-1.97;100.00;97301.66;1020035;29;20118;-49
2021/03/01 01:37:10;;;;;;;18.88;12.82;;;;;;;-1.93;100.00;97314.47;1012173;29;20032;-52
2021/03/01 01:37:40;;;;;;;19.17;13.48;;;;;;;-1.96;100.00;97307.63;1012298;29;20030;-51
2021/03/01 01:38:11;;;;;;;17.17;12.57;;;;;;;-1.98;100.00;97307.63;1008577;29;20502;-49
2021/03/01 01:38:42;;;;;;;19.40;12.55;;;;;;;-1.96;100.00;97312.78;1012385;29;20418;-48
2021/03/01 01:39:13;;;;;;;19.35;13.10;;;;;;;-1.97;100.00;97306.78;1016139;29;20020;-51
2021/03/01 01:39:43;;;;;;;19.63;13.32;;;;;;;-1.96;100.00;97312.78;1016372;29;20117;-50
2021/03/01 01:40:17;;;;;;;17.20;13.27;;;;;;;-1.96;100.00;97315.34;1012410;29;20076;-49
2021/03/01 01:40:48;;;;;;;19.98;13.44;;;;;;;-1.96;100.00;97305.91;1016344;29;20027;-51
2021/03/01 01:41:19;;;;;;;21.52;14.55;;;;;;;-1.97;100.00;97311.94;1020011;29;20028;-49
2021/03/01 01:41:50;;;;;;;19.48;13.98;;;;;;;-1.97;100.00;97306.78;1020376;29;20441;-51
2021/03/01 01:42:20;;;;;;;19.88;13.85;;;;;;;-1.98;100.00;97315.34;1012490;29;20093;-50
2021/03/01 01:42:52;;;;;;;20.15;13.30;;;;;;;-1.98;100.00;97309.34;1016476;29;20052;-48
2021/03/01 01:43:23;;;;;;;19.84;13.56;;;;;;;-1.97;100.00;97311.94;1012220;29;20027;-51
2021/03/01 01:43:53;;;;;;;18.35;12.43;;;;;;;-1.97;100.00;97305.94;1023956;29;20448;-49
2021/03/01 01:44:24;;;;;;;17.25;12.55;;;;;;;-1.96;100.00;97305.91;1008630;29;20029;-51
2021/03/01 01:44:55;;;;;;;18.48;12.48;;;;;;;-1.94;100.00;97305.06;1024243;29;20054;-48
2021/03/01 01:45:26;;;;;;;17.50;12.60;;;;;;;-1.95;100.00;97309.38;1020312;29;20079;-49
2021/03/01 01:45:56;;;;;;;18.02;13.36;;;;;;;-1.95;100.00;97309.38;1008422;29;20096;-50
2021/03/01 01:46:27;;;;;;;20.67;13.65;;;;;;;-1.97;100.00;97305.94;1008631;29;20089;-49
2021/03/01 01:46:58;;;;;;;21.85;13.10;;;;;;;-2.01;100.00;97299.94;1016264;29;20024;-48
2021/03/01 01:47:29;;;;;;;21.63;13.60;;;;;;;-2.02;100.00;97307.63;1008271;29;20028;-49
2021/03/01 01:48:00;;;;;;;18.42;13.38;;;;;;;-2.01;100.00;97310.22;1008352;29;20321;-51
2021/03/01 01:48:30;;;;;;;17.92;13.13;;;;;;;-2.05;100.00;97307.63;1016196;29;20036;-49
2021/03/01 01:49:01;;;;;;;20.50;13.13;;;;;;;-2.04;100.00;97306.78;1020107;29;20019;-50
2021/03/01 01:49:32;;;;;;;18.95;13.20;;;;;;;-2.06;100.00;97305.94;1016167;29;20020;-48
2021/03/01 01:50:04;;;;;;;21.25;13.00;;;;;;;-2.10;100.00;97312.75;1016016;29;20020;-48
2021/03/01 01:50:35;;;;;;;18.56;13.40;;;;;;;-2.10;100.00;97304.19;1020038;29;20023;-48
2021/03/01 01:51:06;;;;;;;20.95;12.82;;;;;;;-2.11;100.00;97310.19;1020125;29;20119;-49
2021/03/01 01:51:36;;;;;;;17.42;12.75;;;;;;;-2.13;100.00;97306.78;1012221;29;20028;-50
2021/03/01 01:52:07;;;;;;;20.00;13.30;;;;;;;-2.19;100.00;97305.03;1012168;29;20486;-49
2021/03/01 01:52:38;;;;;;;19.55;13.25;;;;;;;-2.21;100.00;97306.75;1016133;29;20028;-48
2021/03/01 01:53:09;;;;;;;19.23;12.95;;;;;;;-2.22;100.00;97305.88;1016023;29;20075;-50
2021/03/01 01:53:39;;;;;;;22.10;13.68;;;;;;;-2.21;100.00;97299.06;1015778;29;20056;-49
2021/03/01 01:54:10;;;;;;;21.10;13.23;;;;;;;-2.20;100.00;97304.16;1016028;29;20114;-50
2021/03/01 01:54:41;;;;;;;17.38;12.44;;;;;;;-2.21;100.00;97307.59;1020061;29;20138;-50
2021/03/01 01:55:13;;;;;;;19.88;12.40;;;;;;;-2.21;100.00;97305.03;1016045;29;20028;-52
2021/03/01 01:55:43;;;;;;;19.18;12.22;;;;;;;-2.21;100.00;97301.63;1016188;29;20115;-49
2021/03/01 01:56:14;;;;;;;19.00;13.23;;;;;;;-2.22;100.00;97307.59;1019760;29;20028;-50
2021/03/01 01:56:45;;;;;;;19.63;12.35;;;;;;;-2.21;100.00;97304.19;1016172;29;20032;-46
2021/03/01 01:57:16;;;;;;;17.15;12.95;;;;;;;-2.20;100.00;97309.31;1016306;29;20107;-50
2021/03/01 01:57:46;;;;;;;20.35;13.27;;;;;;;-2.22;100.00;97305.88;1004597;29;20049;-53
2021/03/01 01:58:18;;;;;;;23.38;15.95;;;;;;;-2.29;100.00;97303.28;1011998;29;20028;-50
2021/03/01 01:58:48;;;;;;;20.08;14.12;;;;;;;-2.28;100.00;97299.88;1016184;29;20065;-51
2021/03/01 01:59:19;;;;;;;19.38;13.07;;;;;;;-2.29;100.00;97303.28;1020096;29;20120;-50
2021/03/01 01:59:50;;;;;;;21.10;13.75;;;;;;;-2.31;100.00;97300.72;1012302;29;20017;-50
2021/03/01 02:01:09;;;;;;;23.76;13.04;;;;;;;-2.29;100.00;97308.44;1012194;29;20111;-48
2021/03/01 02:01:40;;;;;;;20.65;12.68;;;;;;;-2.30;100.00;97309.31;1008375;29;20091;-48
2021/03/01 02:02:11;;;;;;;19.63;13.98;;;;;;;-2.33;100.00;97307.56;1015927;29;20034;-50
2021/03/01 02:02:42;;;;;;;20.70;12.80;;;;;;;-2.30;100.00;97309.31;1012175;29;20066;-48
2021/03/01 02:03:32;;;;;;;20.55;13.10;;;;;;;-2.30;100.00;97305.00;1019823;29;20034;-51
2021/03/01 02:04:13;;;;;;;18.70;13.02;;;;;;;-2.31;100.00;97305.84;1023790;28;20030;-51
2021/03/01 02:04:46;;;;;;;17.20;11.92;;;;;;;-2.32;100.00;97300.75;1012208;29;20025;-50
2021/03/01 02:05:17;;;;;;;18.54;13.68;;;;;;;-2.37;100.00;97293.00;1019851;29;20440;-49
2021/03/01 02:05:48;;;;;;;19.95;12.93;;;;;;;-2.33;100.00;97299.88;1023991;29;20030;-49
2021/03/01 02:06:23;;;;;;;18.52;13.02;;;;;;;-2.32;100.00;97300.75;1019895;29;20406;-50
2021/03/01 02:07:13;;;;;;;19.38;12.76;;;;;;;-2.32;100.00;97306.72;1012133;29;20479;-49
2021/03/01 02:08:02;;;;;;;19.80;12.70;;;;;;;-2.32;100.00;97295.63;1016050;29;20043;-49
2021/03/01 02:08:42;;;;;;;18.54;12.22;;;;;;;-2.33;100.00;97294.72;1021042;29;20031;-48
2021/03/01 02:09:22;;;;;;;20.20;12.70;;;;;;;-2.35;100.00;97299.00;1012204;29;20123;-49
2021/03/01 02:10:13;;;;;;;19.60;12.00;;;;;;;-2.35;100.00;97289.63;1016054;29;20434;-50
2021/03/01 02:10:56;;;;;;;18.63;11.60;;;;;;;-2.36;100.00;97294.75;1012138;29;20032;-50
2021/03/01 02:11:46;;;;;;;21.64;12.82;;;;;;;-2.36;100.00;97289.59;1008934;29;20029;-49
2021/03/01 02:12:21;;;;;;;22.48;13.93;;;;;;;-2.38;100.00;97289.59;1016686;29;20020;-50
2021/03/01 02:13:01;;;;;;;18.32;12.64;;;;;;;-2.37;100.00;97295.59;1019826;29;20027;-48
2021/03/01 02:13:36;;;;;;;21.40;12.57;;;;;;;-2.41;100.00;97294.72;1012251;29;20109;-49
2021/03/01 02:14:19;;;;;;;21.96;13.04;;;;;;;-2.42;100.00;97299.84;1019961;29;20039;-48
2021/03/01 02:15:09;;;;;;;22.52;12.84;;;;;;;-2.46;100.00;97293.88;1019997;29;20460;-49
2021/03/01 02:15:51;;;;;;;19.58;12.88;;;;;;;-2.47;100.00;97293.88;1012303;29;20028;-51
2021/03/01 02:16:27;;;;;;;19.18;12.32;;;;;;;-2.47;100.00;97289.56;1016386;29;20020;-49
2021/03/01 02:16:58;;;;;;;23.84;13.26;;;;;;;-2.48;100.00;97292.13;1015945;29;20083;-50
2021/03/01 02:17:29;;;;;;;21.86;13.46;;;;;;;-2.49;100.00;97300.69;1016022;29;20087;-49
2021/03/01 02:17:59;;;;;;;23.64;13.54;;;;;;;-2.50;100.00;97292.13;1012154;29;20148;-49
2021/03/01 02:18:30;;;;;;;18.88;13.27;;;;;;;-2.52;100.00;97295.53;1012184;29;20134;-49
2021/03/01 02:19:01;;;;;;;22.88;13.18;;;;;;;-2.56;100.00;97289.56;1023793;29;20473;-48
2021/03/01 02:19:32;;;;;;;18.40;12.52;;;;;;;-2.57;100.00;97293.84;1023890;29;20445;-50
2021/03/01 02:20:06;;;;;;;19.73;13.25;;;;;;;-2.58;100.00;97293.81;1020106;29;20024;-49
2021/03/01 02:20:45;;;;;;;20.52;13.32;;;;;;;-2.60;100.00;97293.81;1019861;28;20098;-50
2021/03/01 02:21:16;;;;;;;23.56;14.38;;;;;;;-2.60;100.00;97300.66;1027685;28;20030;-50
2021/03/01 02:21:46;;;;;;;19.50;13.27;;;;;;;-2.62;100.00;97298.09;1019972;29;20524;-49
2021/03/01 02:22:17;;;;;;;20.33;12.90;;;;;;;-2.62;100.00;97295.50;1012142;29;20028;-49
2021/03/01 02:22:48;;;;;;;22.48;13.73;;;;;;;-2.62;100.00;97295.50;1020064;29;20024;-49
2021/03/01 02:23:19;;;;;;;22.48;13.10;;;;;;;-2.63;100.00;97293.81;1011861;29;20024;-48
2021/03/01 02:23:49;;;;;;;24.08;13.05;;;;;;;-2.63;100.00;97292.94;1019746;29;20051;-51
2021/03/01 02:24:31;;;;;;;23.75;13.80;;;;;;;-2.63;100.00;97293.81;1023846;29;20019;-49
2021/03/01 02:25:07;;;;;;;19.64;12.66;;;;;;;-2.63;100.00;97298.94;1012022;29;20024;-50